Hovedside
METAR-TAF:

METAR-TAF

Lufthavner :

Spaa

Tomaszów Mazowiecki, Polen

breddegrad: 51-35-04N, lengdegrad: 020-05-52E, høyde over havet: 174 m

METAR: fraværende

Tid: 12:43 (10:43 UTC)

Varsel

Denne rapporten ble laget for 23 timer og 43 minutter siden, klokken 11:00 UTC
Varsel gyldig fra 18. klokken 12 UTC til 18. klokken 24 UTC
Vind 8 kt fra Vest
Sikt 10 km eller mer
Spredte skyer i en høyde av 4000 ft
Sannsynlighet 30% :
Midlertidig
fra 18. klokken 13 UTC til 18. klokken 20 UTC
Brutte skyer i en høyde av 3000 ft, Bygeskyer.
lette regnbyger,

TAF: EPTM 181100Z 1812/1824 26008KT 9999 SCT040 PROB30 TEMPO 1813/1820 -SHRA BKN030CB

Værobservasjoner og værvarsel for over 4000 flyplasser (METAR- og TAF-rapporter).

Tilgjengelige stasjoner er representert av de røde og gule prikkene på kartet.

Hold musepekeren over prikken for å se navnet på stasjonen.

Klikk så for å se værobservasjoner og -varsler.

For å forandre kartet kan du klikke på den grønne knappen med svart kryss for å zoome inn, på den grønne knappen med strek for å zoome ut, eller på de grønne pilene for å se tilstøtende kart.


METAR-TAF: